Big Bear Station Historical Data
Daily Summary for July 8, 2019 Units:  English    Metric   Both
Next Day »
Daily Weekly Monthly Yearly Custom
  High: Low: Average:
Temperature: 76.3 °F 45.5 °F 60.2 °F
Dew Point: 48.5 °F 28.5 °F 38 °F
Humidity: 78% 23% 46%
Wind Speed: 6.3mph 0mph 0.3mph
Wind Gust: -999mph - -
Wind- - NW
Pressure: 23.57 in 23.50 in -
Precipitation: 0 in    
Historical Graphs
 
 
Tabular Data for July 8, 2019
Time Temperature Dew Point Pressure Wind Wind Speed Wind Gust Humidity Rainfall Rate (Hourly)
00:08 51.1 °F 32.1 °F 23.53 in Calm   -999 mph 48% 0.00 in
00:23 50.9 °F 32.9 °F 23.53 in Calm   -999 mph 50% 0.00 in
00:38 51.1 °F 32.1 °F 23.53 in Calm   -999 mph 48% 0.00 in
00:54 50.7 °F 31.7 °F 23.53 in Calm   -999 mph 48% 0.00 in
01:09 50.5 °F 31.5 °F 23.52 in Calm   -999 mph 48% 0.00 in
01:24 50.9 °F 32.9 °F 23.52 in Calm   -999 mph 50% 0.00 in
01:39 50.4 °F 32.9 °F 23.52 in Calm   -999 mph 51% 0.00 in
01:54 49.8 °F 31.4 °F 23.51 in Calm   -999 mph 49% 0.00 in
02:10 49.1 °F 30.2 °F 23.51 in Calm   -999 mph 48% 0.00 in
02:25 49.5 °F 28.5 °F 23.52 in Calm   -999 mph 44% 0.00 in
02:40 48.9 °F 28.5 °F 23.51 in Calm   -999 mph 45% 0.00 in
02:55 49.1 °F 28.7 °F 23.51 in Calm   -999 mph 45% 0.00 in
03:10 48.4 °F 29.6 °F 23.51 in Calm   -999 mph 48% 0.00 in
03:26 47.8 °F 31 °F 23.50 in Calm   -999 mph 52% 0.00 in
03:41 47.7 °F 31.9 °F 23.50 in Calm   -999 mph 54% 0.00 in
03:56 47.5 °F 32.1 °F 23.50 in Calm   -999 mph 55% 0.00 in
04:11 46.9 °F 32.5 °F 23.50 in Calm   -999 mph 57% 0.00 in
04:27 46.6 °F 34.3 °F 23.50 in Calm   -999 mph 62% 0.00 in
04:42 46 °F 34.1 °F 23.50 in Calm   -999 mph 63% 0.00 in
04:57 45.7 °F 34.2 °F 23.50 in Calm   -999 mph 64% 0.00 in
05:12 46 °F 34.5 °F 23.51 in Calm   -999 mph 64% 0.00 in
05:27 45.5 °F 34.4 °F 23.51 in Calm   -999 mph 65% 0.00 in
05:43 45.7 °F 35.7 °F 23.51 in Calm   -999 mph 68% 0.00 in
05:58 45.5 °F 35.9 °F 23.52 in Calm   -999 mph 69% 0.00 in
06:13 45.7 °F 37.5 °F 23.52 in Calm   -999 mph 73% 0.00 in
06:28 45.9 °F 37.4 °F 23.52 in Calm   -999 mph 72% 0.00 in
06:43 46.2 °F 38.7 °F 23.53 in Calm   -999 mph 75% 0.00 in
06:59 47.1 °F 40.3 °F 23.52 in Calm   -999 mph 77% 0.00 in
07:14 47.7 °F 41.2 °F 23.53 in Calm   -999 mph 78% 0.00 in
07:29 49.1 °F 40.5 °F 23.52 in Calm   -999 mph 72% 0.00 in
07:44 50.9 °F 39.9 °F 23.53 in Calm   -999 mph 66% 0.00 in
07:59 54.3 °F 37.5 °F 23.53 in Calm   -999 mph 53% 0.00 in
08:15 56.7 °F 37.2 °F 23.53 in Calm   -999 mph 48% 0.00 in
08:30 58.5 °F 38.3 °F 23.54 in Calm   -999 mph 47% 0.00 in
08:45 59.5 °F 39.8 °F 23.53 in Calm   -999 mph 48% 0.00 in
09:00 60.4 °F 39 °F 23.54 in Calm   -999 mph 45% 0.00 in
09:15 61.5 °F 39.4 °F 23.54 in Calm   -999 mph 44% 0.00 in
09:31 62.4 °F 39 °F 23.54 in Calm   -999 mph 42% 0.00 in
09:46 63.7 °F 38.9 °F 23.54 in Calm   -999 mph 40% 0.00 in
10:01 64.4 °F 39.6 °F 23.54 in Calm   -999 mph 40% 0.00 in
10:16 64.9 °F 40.6 °F 23.54 in Calm   -999 mph 41% 0.00 in
10:32 65.3 °F 42.2 °F 23.54 in Calm   -999 mph 43% 0.00 in
10:47 65.7 °F 42.6 °F 23.54 in Calm   -999 mph 43% 0.00 in
11:02 67.1 °F 40.6 °F 23.54 in Calm   -999 mph 38% 0.00 in
11:17 69.3 °F 36.5 °F 23.55 in Calm   -999 mph 30% 0.00 in
11:32 71.4 °F 40 °F 23.54 in Calm   -999 mph 32% 0.00 in
11:48 70.5 °F 34.9 °F 23.55 in Calm   -999 mph 27% 0.00 in
12:03 72.9 °F 42.1 °F 23.55 in Calm   -999 mph 33% 0.00 in
12:18 73 °F 41.4 °F 23.55 in Calm   -999 mph 32% 0.00 in
12:33 73.2 °F 39.9 °F 23.55 in NNW 1.7 mph -999 mph 30% 0.00 in
12:48 74.3 °F 41.7 °F 23.55 in Calm   -999 mph 31% 0.00 in
13:04 73.8 °F 43.7 °F 23.55 in Calm   -999 mph 34% 0.00 in
13:19 75 °F 44.7 °F 23.55 in NNW 6.3 mph -999 mph 34% 0.00 in
13:34 75 °F 43.1 °F 23.55 in Calm   -999 mph 32% 0.00 in
13:49 75.2 °F 43.3 °F 23.56 in NW 2.2 mph -999 mph 32% 0.00 in
14:04 74.7 °F 45.2 °F 23.55 in WNW 3.7 mph -999 mph 35% 0.00 in
14:20 74.3 °F 41.7 °F 23.56 in NW 2.7 mph -999 mph 31% 0.00 in
14:35 75.6 °F 40.2 °F 23.55 in NW 3.2 mph -999 mph 28% 0.00 in
14:50 75.6 °F 41.1 °F 23.56 in Calm   -999 mph 29% 0.00 in
15:05 76.3 °F 39.9 °F 23.56 in Calm   -999 mph 27% 0.00 in
15:21 74.8 °F 34.5 °F 23.55 in Calm   -999 mph 23% 0.00 in
15:36 75.2 °F 44.1 °F 23.55 in Calm   -999 mph 33% 0.00 in
15:51 75 °F 43.1 °F 23.55 in Calm   -999 mph 32% 0.00 in
16:06 74.1 °F 38 °F 23.55 in West 4.2 mph -999 mph 27% 0.00 in
16:21 74.5 °F 43.5 °F 23.55 in Calm   -999 mph 33% 0.00 in
16:37 73.4 °F 40.9 °F 23.55 in Calm   -999 mph 31% 0.00 in
16:52 75 °F 45.5 °F 23.54 in Calm   -999 mph 35% 0.00 in
17:07 74.5 °F 45.8 °F 23.54 in Calm   -999 mph 36% 0.00 in
17:22 73.2 °F 45.4 °F 23.54 in NNW 3.2 mph -999 mph 37% 0.00 in
17:38 72.9 °F 47.2 °F 23.54 in Calm   -999 mph 40% 0.00 in
17:53 71.2 °F 46.3 °F 23.54 in Calm   -999 mph 41% 0.00 in
18:08 73.2 °F 47.4 °F 23.54 in Calm   -999 mph 40% 0.00 in
18:23 71.1 °F 47.5 °F 23.54 in Calm   -999 mph 43% 0.00 in
18:39 69.6 °F 48.5 °F 23.54 in Calm   -999 mph 47% 0.00 in
18:54 69.3 °F 48.2 °F 23.54 in Calm   -999 mph 47% 0.00 in
19:09 68 °F 48.1 °F 23.54 in Calm   -999 mph 49% 0.00 in
19:24 64.8 °F 46.8 °F 23.54 in Calm   -999 mph 52% 0.00 in
19:39 61.3 °F 44 °F 23.55 in Calm   -999 mph 53% 0.00 in
19:55 59.7 °F 43.5 °F 23.55 in Calm   -999 mph 55% 0.00 in
20:10 59 °F 39.3 °F 23.55 in Calm   -999 mph 48% 0.00 in
20:25 58.3 °F 37.6 °F 23.55 in Calm   -999 mph 46% 0.00 in
20:40 57.9 °F 36.1 °F 23.56 in Calm   -999 mph 44% 0.00 in
20:55 57.2 °F 34.9 °F 23.56 in Calm   -999 mph 43% 0.00 in
21:11 56.8 °F 33.9 °F 23.56 in Calm   -999 mph 42% 0.00 in
21:26 56.1 °F 33.3 °F 23.57 in Calm   -999 mph 42% 0.00 in
21:41 55.8 °F 33 °F 23.57 in Calm   -999 mph 42% 0.00 in
21:56 55.6 °F 32.9 °F 23.57 in Calm   -999 mph 42% 0.00 in
22:11 55.6 °F 32.9 °F 23.57 in Calm   -999 mph 42% 0.00 in
22:27 55.2 °F 32.5 °F 23.57 in Calm   -999 mph 42% 0.00 in
22:42 54.9 °F 32.2 °F 23.57 in Calm   -999 mph 42% 0.00 in
22:57 54.5 °F 31.9 °F 23.57 in Calm   -999 mph 42% 0.00 in
23:12 54 °F 32.6 °F 23.57 in Calm   -999 mph 44% 0.00 in
23:27 53.4 °F 31.5 °F 23.57 in Calm   -999 mph 43% 0.00 in
23:43 53.2 °F 31.3 °F 23.57 in Calm   -999 mph 43% 0.00 in
23:58 53.1 °F 31.8 °F 23.57 in Calm   -999 mph 44% 0.00 in
Big Bear CA Weather